sensor_id;sensor_type;location;lat;lon;timestamp;pressure;altitude;pressure_sealevel;temperature;humidity
6829;BME280;17930;48.592;8.868;2023-05-14T00:01:00;96729.44;;;11.59;100.00
6829;BME280;17930;48.592;8.868;2023-05-14T00:03:26;96737.81;;;11.61;100.00
6829;BME280;17930;48.592;8.868;2023-05-14T00:05:54;96730.56;;;11.53;100.00
6829;BME280;17930;48.592;8.868;2023-05-14T00:08:21;96728.41;;;11.60;100.00
6829;BME280;17930;48.592;8.868;2023-05-14T00:10:48;96723.22;;;11.55;100.00
6829;BME280;17930;48.592;8.868;2023-05-14T00:13:14;96721.19;;;11.47;100.00
6829;BME280;17930;48.592;8.868;2023-05-14T00:15:41;96726.41;;;11.47;100.00
6829;BME280;17930;48.592;8.868;2023-05-14T00:18:07;96718.63;;;11.42;100.00
6829;BME280;17930;48.592;8.868;2023-05-14T00:20:36;96721.47;;;11.46;100.00
6829;BME280;17930;48.592;8.868;2023-05-14T00:23:04;96720.19;;;11.43;100.00
6829;BME280;17930;48.592;8.868;2023-05-14T00:25:31;96717.31;;;11.45;100.00
6829;BME280;17930;48.592;8.868;2023-05-14T00:27:58;96716.53;;;11.44;100.00
6829;BME280;17930;48.592;8.868;2023-05-14T00:30:24;96712.00;;;11.55;100.00
6829;BME280;17930;48.592;8.868;2023-05-14T00:32:51;96708.19;;;11.42;100.00
6829;BME280;17930;48.592;8.868;2023-05-14T00:35:18;96709.75;;;11.43;100.00
6829;BME280;17930;48.592;8.868;2023-05-14T00:37:46;96711.31;;;11.44;100.00
6829;BME280;17930;48.592;8.868;2023-05-14T00:40:13;96705.84;;;11.41;100.00
6829;BME280;17930;48.592;8.868;2023-05-14T00:42:40;96709.28;;;11.36;100.00
6829;BME280;17930;48.592;8.868;2023-05-14T00:45:07;96703.84;;;11.33;100.00
6829;BME280;17930;48.592;8.868;2023-05-14T00:47:34;96701.53;;;11.31;100.00
6829;BME280;17930;48.592;8.868;2023-05-14T00:50:04;96705.94;;;11.31;100.00
6829;BME280;17930;48.592;8.868;2023-05-14T00:52:31;96699.41;;;11.33;100.00
6829;BME280;17930;48.592;8.868;2023-05-14T00:54:58;96698.34;;;11.34;100.00
6829;BME280;17930;48.592;8.868;2023-05-14T00:57:27;96697.28;;;11.35;100.00
6829;BME280;17930;48.592;8.868;2023-05-14T00:59:54;96697.56;;;11.34;100.00
6829;BME280;17930;48.592;8.868;2023-05-14T01:02:21;96694.66;;;11.35;100.00
6829;BME280;17930;48.592;8.868;2023-05-14T01:04:47;96692.31;;;11.39;100.00
6829;BME280;17930;48.592;8.868;2023-05-14T01:07:19;96687.56;;;11.41;100.00
6829;BME280;17930;48.592;8.868;2023-05-14T01:09:53;96689.41;;;11.40;100.00
6829;BME280;17930;48.592;8.868;2023-05-14T01:12:28;96681.50;;;11.45;100.00
6829;BME280;17930;48.592;8.868;2023-05-14T01:15:05;96676.28;;;11.50;100.00
6829;BME280;17930;48.592;8.868;2023-05-14T01:17:39;96675.22;;;11.51;100.00
6829;BME280;17930;48.592;8.868;2023-05-14T01:20:07;96669.72;;;11.53;100.00
6829;BME280;17930;48.592;8.868;2023-05-14T01:22:35;96663.28;;;11.64;100.00
6829;BME280;17930;48.592;8.868;2023-05-14T01:25:02;96667.28;;;11.61;100.00
6829;BME280;17930;48.592;8.868;2023-05-14T01:27:33;96668.25;;;11.65;100.00
6829;BME280;17930;48.592;8.868;2023-05-14T01:30:08;96666.81;;;11.54;100.00
6829;BME280;17930;48.592;8.868;2023-05-14T01:32:38;96668.44;;;11.50;100.00
6829;BME280;17930;48.592;8.868;2023-05-14T01:35:07;96661.13;;;11.47;100.00
6829;BME280;17930;48.592;8.868;2023-05-14T01:37:37;96668.44;;;11.50;100.00
6829;BME280;17930;48.592;8.868;2023-05-14T01:40:06;96662.72;;;11.48;100.00
6829;BME280;17930;48.592;8.868;2023-05-14T01:42:33;96659.00;;;11.54;100.00
6829;BME280;17930;48.592;8.868;2023-05-14T01:45:01;96660.53;;;11.55;100.00
6829;BME280;17930;48.592;8.868;2023-05-14T01:47:28;96660.19;;;11.62;100.00
6829;BME280;17930;48.592;8.868;2023-05-14T01:49:54;96663.25;;;11.69;100.00
6829;BME280;17930;48.592;8.868;2023-05-14T01:52:21;96670.09;;;11.65;100.00
6829;BME280;17930;48.592;8.868;2023-05-14T01:54:49;96664.09;;;11.64;100.00
6829;BME280;17930;48.592;8.868;2023-05-14T01:57:16;96658.31;;;11.67;100.00
6829;BME280;17930;48.592;8.868;2023-05-14T01:59:42;96662.53;;;11.63;100.00
6829;BME280;17930;48.592;8.868;2023-05-14T02:02:09;96660.97;;;11.62;100.00
6829;BME280;17930;48.592;8.868;2023-05-14T02:04:36;96665.75;;;11.55;100.00
6829;BME280;17930;48.592;8.868;2023-05-14T02:07:02;96666.34;;;11.47;100.00
6829;BME280;17930;48.592;8.868;2023-05-14T02:09:29;96655.66;;;11.49;100.00
6829;BME280;17930;48.592;8.868;2023-05-14T02:11:57;96659.03;;;11.49;100.00
6829;BME280;17930;48.592;8.868;2023-05-14T02:14:24;96655.88;;;11.52;100.00
6829;BME280;17930;48.592;8.868;2023-05-14T02:16:50;96654.31;;;11.51;100.00
6829;BME280;17930;48.592;8.868;2023-05-14T02:19:17;96664.31;;;11.44;100.00
6829;BME280;17930;48.592;8.868;2023-05-14T02:21:44;96662.75;;;11.43;100.00
6829;BME280;17930;48.592;8.868;2023-05-14T02:24:10;96654.88;;;11.48;100.00
6829;BME280;17930;48.592;8.868;2023-05-14T02:26:37;96654.91;;;11.43;100.00
6829;BME280;17930;48.592;8.868;2023-05-14T02:29:05;96658.41;;;11.34;100.00
6829;BME280;17930;48.592;8.868;2023-05-14T02:31:32;96663.78;;;11.42;100.00
6829;BME280;17930;48.592;8.868;2023-05-14T02:34:00;96658.00;;;11.45;100.00
6829;BME280;17930;48.592;8.868;2023-05-14T02:36:26;96668.53;;;11.40;100.00
6829;BME280;17930;48.592;8.868;2023-05-14T02:38:53;96666.63;;;11.46;100.00
6829;BME280;17930;48.592;8.868;2023-05-14T02:41:20;96659.19;;;11.34;100.00
6829;BME280;17930;48.592;8.868;2023-05-14T02:43:46;96662.78;;;11.38;100.00
6829;BME280;17930;48.592;8.868;2023-05-14T02:46:14;96663.56;;;11.39;100.00
6829;BME280;17930;48.592;8.868;2023-05-14T02:51:18;96669.28;;;11.41;100.00
6829;BME280;17930;48.592;8.868;2023-05-14T02:53:45;96672.47;;;11.38;100.00
6829;BME280;17930;48.592;8.868;2023-05-14T02:56:12;96665.91;;;11.40;100.00
6829;BME280;17930;48.592;8.868;2023-05-14T02:58:39;96661.88;;;11.53;100.00
6829;BME280;17930;48.592;8.868;2023-05-14T03:01:06;96669.53;;;11.44;100.00
6829;BME280;17930;48.592;8.868;2023-05-14T03:03:34;96661.28;;;11.32;100.00
6829;BME280;17930;48.592;8.868;2023-05-14T03:06:03;96663.34;;;11.35;100.00
6829;BME280;17930;48.592;8.868;2023-05-14T03:08:29;96665.91;;;11.40;100.00
6829;BME280;17930;48.592;8.868;2023-05-14T03:10:56;96663.06;;;11.37;100.00
6829;BME280;17930;48.592;8.868;2023-05-14T03:13:23;96654.94;;;11.38;100.00
6829;BME280;17930;48.592;8.868;2023-05-14T03:15:49;96658.28;;;11.44;100.00
6829;BME280;17930;48.592;8.868;2023-05-14T03:18:19;96660.97;;;11.39;100.00
6829;BME280;17930;48.592;8.868;2023-05-14T03:20:47;96656.50;;;11.39;100.00
6829;BME280;17930;48.592;8.868;2023-05-14T03:23:14;96655.66;;;11.49;100.00
6829;BME280;17930;48.592;8.868;2023-05-14T03:25:40;96663.56;;;11.39;100.00
6829;BME280;17930;48.592;8.868;2023-05-14T03:28:07;96658.28;;;11.44;100.00
6829;BME280;17930;48.592;8.868;2023-05-14T03:30:34;96662.75;;;11.43;100.00
6829;BME280;17930;48.592;8.868;2023-05-14T03:33:01;96661.28;;;11.32;100.00
6829;BME280;17930;48.592;8.868;2023-05-14T03:35:28;96661.06;;;11.29;100.00
6829;BME280;17930;48.592;8.868;2023-05-14T03:37:57;96665.28;;;11.25;100.00
6829;BME280;17930;48.592;8.868;2023-05-14T03:40:24;96665.50;;;11.28;100.00
6829;BME280;17930;48.592;8.868;2023-05-14T03:42:51;96677.50;;;11.29;100.00
6829;BME280;17930;48.592;8.868;2023-05-14T03:45:18;96671.53;;;11.29;100.00
6829;BME280;17930;48.592;8.868;2023-05-14T03:47:44;96665.78;;;11.27;100.00
6829;BME280;17930;48.592;8.868;2023-05-14T03:50:11;96664.34;;;11.16;100.00
6829;BME280;17930;48.592;8.868;2023-05-14T03:52:37;96671.38;;;11.16;100.00
6829;BME280;17930;48.592;8.868;2023-05-14T03:55:06;96670.63;;;11.15;100.00
6829;BME280;17930;48.592;8.868;2023-05-14T03:57:33;96668.28;;;11.14;100.00
6829;BME280;17930;48.592;8.868;2023-05-14T04:00:00;96666.72;;;11.13;100.00
6829;BME280;17930;48.592;8.868;2023-05-14T04:02:26;96667.44;;;11.18;100.00
6829;BME280;17930;48.592;8.868;2023-05-14T04:04:53;96663.94;;;11.04;100.00
6829;BME280;17930;48.592;8.868;2023-05-14T04:07:19;96668.38;;;11.04;100.00
6829;BME280;17930;48.592;8.868;2023-05-14T04:09:46;96669.56;;;11.16;100.00
6829;BME280;17930;48.592;8.868;2023-05-14T04:12:14;96674.06;;;11.11;100.00
6829;BME280;17930;48.592;8.868;2023-05-14T04:14:41;96669.28;;;11.18;100.00
6829;BME280;17930;48.592;8.868;2023-05-14T04:17:07;96671.38;;;11.16;100.00
6829;BME280;17930;48.592;8.868;2023-05-14T04:19:34;96662.56;;;11.12;100.00
6829;BME280;17930;48.592;8.868;2023-05-14T04:22:01;96661.84;;;11.29;100.00
6829;BME280;17930;48.592;8.868;2023-05-14T04:24:27;96660.38;;;11.19;100.00
6829;BME280;17930;48.592;8.868;2023-05-14T04:26:54;96650.06;;;11.09;100.00
6829;BME280;17930;48.592;8.868;2023-05-14T04:29:22;96656.44;;;10.98;100.00
6829;BME280;17930;48.592;8.868;2023-05-14T04:31:48;96650.22;;;10.94;100.00
6829;BME280;17930;48.592;8.868;2023-05-14T04:34:15;96651.69;;;11.05;100.00
6829;BME280;17930;48.592;8.868;2023-05-14T04:36:42;96661.94;;;11.20;100.00
6829;BME280;17930;48.592;8.868;2023-05-14T04:39:08;96658.06;;;11.17;100.00
6829;BME280;17930;48.592;8.868;2023-05-14T04:41:37;96662.84;;;11.10;100.00
6829;BME280;17930;48.592;8.868;2023-05-14T04:44:04;96664.94;;;11.08;100.00
6829;BME280;17930;48.592;8.868;2023-05-14T04:46:32;96663.06;;;11.14;100.00
6829;BME280;17930;48.592;8.868;2023-05-14T04:48:59;96658.16;;;11.07;100.00
6829;BME280;17930;48.592;8.868;2023-05-14T04:51:26;96670.25;;;10.98;100.00
6829;BME280;17930;48.592;8.868;2023-05-14T04:53:52;96670.03;;;10.95;100.00
6829;BME280;17930;48.592;8.868;2023-05-14T04:56:19;96663.94;;;11.04;100.00
6829;BME280;17930;48.592;8.868;2023-05-14T04:58:46;96666.50;;;11.09;100.00
6829;BME280;17930;48.592;8.868;2023-05-14T05:01:12;96664.09;;;11.13;100.00
6829;BME280;17930;48.592;8.868;2023-05-14T05:03:41;96665.50;;;11.05;100.00
6829;BME280;17930;48.592;8.868;2023-05-14T05:06:07;96657.66;;;11.05;100.00
6829;BME280;17930;48.592;8.868;2023-05-14T05:08:35;96663.16;;;11.04;100.00
6829;BME280;17930;48.592;8.868;2023-05-14T05:11:02;96666.81;;;11.03;100.00
6829;BME280;17930;48.592;8.868;2023-05-14T05:13:29;96663.09;;;11.09;100.00
6829;BME280;17930;48.592;8.868;2023-05-14T05:15:56;96658.22;;;11.02;100.00
6829;BME280;17930;48.592;8.868;2023-05-14T05:18:23;96658.22;;;11.02;100.00
6829;BME280;17930;48.592;8.868;2023-05-14T05:20:51;96664.19;;;11.08;100.00
6829;BME280;17930;48.592;8.868;2023-05-14T05:23:17;96658.41;;;11.11;100.00
6829;BME280;17930;48.592;8.868;2023-05-14T05:25:44;96660.28;;;11.28;100.00
6829;BME280;17930;48.592;8.868;2023-05-14T05:28:11;96661.97;;;11.43;100.00
6829;BME280;17930;48.592;8.868;2023-05-14T05:30:38;96660.63;;;11.45;100.00
6829;BME280;17930;48.592;8.868;2023-05-14T05:33:05;96659.91;;;11.63;100.00
6829;BME280;17930;48.592;8.868;2023-05-14T05:35:32;96650.47;;;11.67;100.00
6829;BME280;17930;48.592;8.868;2023-05-14T05:37:59;96649.16;;;11.88;100.00
6829;BME280;17930;48.592;8.868;2023-05-14T05:40:26;96655.91;;;11.89;100.00
6829;BME280;17930;48.592;8.868;2023-05-14T05:42:53;96653.25;;;11.94;100.00
6829;BME280;17930;48.592;8.868;2023-05-14T05:45:20;96649.84;;;11.93;100.00
6829;BME280;17930;48.592;8.868;2023-05-14T05:47:46;96655.03;;;11.98;100.00
6829;BME280;17930;48.592;8.868;2023-05-14T05:50:13;96648.59;;;12.09;100.00
6829;BME280;17930;48.592;8.868;2023-05-14T05:52:40;96651.75;;;12.25;100.00
6829;BME280;17930;48.592;8.868;2023-05-14T05:55:09;96652.31;;;12.22;100.00
6829;BME280;17930;48.592;8.868;2023-05-14T05:57:35;96649.50;;;12.18;100.00
6829;BME280;17930;48.592;8.868;2023-05-14T06:00:02;96645.25;;;12.40;100.00
6829;BME280;17930;48.592;8.868;2023-05-14T06:02:37;96644.81;;;12.52;100.00
6829;BME280;17930;48.592;8.868;2023-05-14T06:05:05;96640.59;;;12.69;100.00
6829;BME280;17930;48.592;8.868;2023-05-14T06:07:32;96647.28;;;12.75;100.00
6829;BME280;17930;48.592;8.868;2023-05-14T06:09:59;96649.72;;;12.72;100.00
6829;BME280;17930;48.592;8.868;2023-05-14T06:12:27;96655.25;;;12.70;100.00
6829;BME280;17930;48.592;8.868;2023-05-14T06:14:54;96651.16;;;12.96;100.00
6829;BME280;17930;48.592;8.868;2023-05-14T06:17:22;96646.22;;;13.08;100.00
6829;BME280;17930;48.592;8.868;2023-05-14T06:19:49;96656.28;;;13.01;100.00
6829;BME280;17930;48.592;8.868;2023-05-14T06:22:16;96662.03;;;13.03;100.00
6829;BME280;17930;48.592;8.868;2023-05-14T06:24:43;96656.31;;;13.14;100.00
6829;BME280;17930;48.592;8.868;2023-05-14T06:27:10;96655.44;;;13.19;100.00
6829;BME280;17930;48.592;8.868;2023-05-14T06:29:38;96655.63;;;13.09;100.00
6829;BME280;17930;48.592;8.868;2023-05-14T06:32:05;96657.56;;;13.03;100.00
6829;BME280;17930;48.592;8.868;2023-05-14T06:34:32;96662.03;;;13.03;100.00
6829;BME280;17930;48.592;8.868;2023-05-14T06:36:59;96653.34;;;12.57;100.00
6829;BME280;17930;48.592;8.868;2023-05-14T06:39:28;96657.84;;;12.70;100.00
6829;BME280;17930;48.592;8.868;2023-05-14T06:41:54;96662.19;;;12.93;100.00
6829;BME280;17930;48.592;8.868;2023-05-14T06:44:21;96658.72;;;12.97;100.00
6829;BME280;17930;48.592;8.868;2023-05-14T06:46:49;96659.66;;;12.88;100.00
6829;BME280;17930;48.592;8.868;2023-05-14T06:49:16;96668.38;;;12.65;100.00
6829;BME280;17930;48.592;8.868;2023-05-14T06:51:43;96664.13;;;12.56;100.00
6829;BME280;17930;48.592;8.868;2023-05-14T06:54:10;96675.66;;;12.68;100.00
6829;BME280;17930;48.592;8.868;2023-05-14T06:56:37;96676.41;;;12.55;100.00
6829;BME280;17930;48.592;8.868;2023-05-14T06:59:03;96671.25;;;12.50;100.00
6829;BME280;17930;48.592;8.868;2023-05-14T07:01:30;96667.66;;;12.46;100.00
6829;BME280;17930;48.592;8.868;2023-05-14T07:03:58;96665.56;;;12.62;100.00
6829;BME280;17930;48.592;8.868;2023-05-14T07:06:24;96668.53;;;12.55;100.00
6829;BME280;17930;48.592;8.868;2023-05-14T07:08:51;96662.81;;;12.72;100.00
6829;BME280;17930;48.592;8.868;2023-05-14T07:11:18;96661.53;;;12.69;100.00
6829;BME280;17930;48.592;8.868;2023-05-14T07:13:46;96662.78;;;12.90;100.00
6829;BME280;17930;48.592;8.868;2023-05-14T07:16:13;96664.41;;;12.86;100.00
6829;BME280;17930;48.592;8.868;2023-05-14T07:18:39;96663.19;;;13.10;100.00
6829;BME280;17930;48.592;8.868;2023-05-14T07:21:07;96654.88;;;13.22;100.00
6829;BME280;17930;48.592;8.868;2023-05-14T07:23:34;96651.19;;;13.23;100.00
6829;BME280;17930;48.592;8.868;2023-05-14T07:26:05;96650.91;;;13.24;100.00
6829;BME280;17930;48.592;8.868;2023-05-14T07:28:32;96652.25;;;13.22;100.00
6829;BME280;17930;48.592;8.868;2023-05-14T07:30:58;96652.25;;;13.22;100.00
6829;BME280;17930;48.592;8.868;2023-05-14T07:33:25;96654.41;;;13.46;100.00
6829;BME280;17930;48.592;8.868;2023-05-14T07:35:52;96646.22;;;13.34;100.00
6829;BME280;17930;48.592;8.868;2023-05-14T07:38:20;96649.84;;;13.38;100.00
6829;BME280;17930;48.592;8.868;2023-05-14T07:40:47;96651.00;;;13.32;100.00
6829;BME280;17930;48.592;8.868;2023-05-14T07:43:13;96647.69;;;13.27;100.00
6829;BME280;17930;48.592;8.868;2023-05-14T07:45:40;96649.63;;;13.22;100.00
6829;BME280;17930;48.592;8.868;2023-05-14T07:48:07;96647.13;;;13.43;100.00
6829;BME280;17930;48.592;8.868;2023-05-14T07:50:33;96648.69;;;13.31;100.00
6829;BME280;17930;48.592;8.868;2023-05-14T07:53:00;96642.66;;;13.44;100.00
6829;BME280;17930;48.592;8.868;2023-05-14T07:55:28;96640.50;;;13.73;100.00
6829;BME280;17930;48.592;8.868;2023-05-14T07:57:55;96641.03;;;13.96;100.00
6829;BME280;17930;48.592;8.868;2023-05-14T08:00:22;96640.63;;;14.16;100.00
6829;BME280;17930;48.592;8.868;2023-05-14T08:02:49;96639.41;;;14.35;100.00
6829;BME280;17930;48.592;8.868;2023-05-14T08:05:16;96639.34;;;14.14;100.00
6829;BME280;17930;48.592;8.868;2023-05-14T08:07:43;96641.66;;;14.50;100.00
6829;BME280;17930;48.592;8.868;2023-05-14T08:10:10;96645.19;;;14.46;100.00
6829;BME280;17930;48.592;8.868;2023-05-14T08:12:37;96640.56;;;14.73;100.00
6829;BME280;17930;48.592;8.868;2023-05-14T08:15:07;96639.63;;;14.26;100.00
6829;BME280;17930;48.592;8.868;2023-05-14T08:17:34;96642.97;;;13.91;100.00
6829;BME280;17930;48.592;8.868;2023-05-14T08:20:00;96641.84;;;13.97;100.00
6829;BME280;17930;48.592;8.868;2023-05-14T08:22:27;96641.53;;;14.33;100.00
6829;BME280;17930;48.592;8.868;2023-05-14T08:24:54;96640.75;;;14.11;100.00
6829;BME280;17930;48.592;8.868;2023-05-14T08:27:20;96638.66;;;14.22;100.00
6829;BME280;17930;48.592;8.868;2023-05-14T08:29:48;96635.72;;;14.36;100.00
6829;BME280;17930;48.592;8.868;2023-05-14T08:32:15;96637.72;;;14.61;100.00
6829;BME280;17930;48.592;8.868;2023-05-14T08:34:42;96634.50;;;14.86;100.00
6829;BME280;17930;48.592;8.868;2023-05-14T08:37:09;96638.03;;;15.12;100.00
6829;BME280;17930;48.592;8.868;2023-05-14T08:39:35;96633.53;;;15.42;100.00
6829;BME280;17930;48.592;8.868;2023-05-14T08:42:05;96631.09;;;15.54;100.00
6829;BME280;17930;48.592;8.868;2023-05-14T08:44:36;96630.50;;;15.66;100.00
6829;BME280;17930;48.592;8.868;2023-05-14T08:47:05;96632.13;;;15.45;100.00
6829;BME280;17930;48.592;8.868;2023-05-14T08:49:38;96639.06;;;15.80;100.00
6829;BME280;17930;48.592;8.868;2023-05-14T08:52:05;96632.63;;;16.28;100.00
6829;BME280;17930;48.592;8.868;2023-05-14T08:54:33;96631.69;;;16.41;100.00
6829;BME280;17930;48.592;8.868;2023-05-14T08:57:00;96634.31;;;16.57;100.00
6829;BME280;17930;48.592;8.868;2023-05-14T08:59:26;96633.25;;;16.42;100.00
6829;BME280;17930;48.592;8.868;2023-05-14T09:01:55;96636.88;;;16.99;100.00
6829;BME280;17930;48.592;8.868;2023-05-14T09:04:23;96633.41;;;17.16;100.00
6829;BME280;17930;48.592;8.868;2023-05-14T09:06:51;96619.53;;;17.73;100.00
6829;BME280;17930;48.592;8.868;2023-05-14T09:09:19;96625.28;;;18.24;100.00
6829;BME280;17930;48.592;8.868;2023-05-14T09:11:48;96630.56;;;18.24;100.00
6829;BME280;17930;48.592;8.868;2023-05-14T09:14:15;96624.47;;;18.03;100.00
6829;BME280;17930;48.592;8.868;2023-05-14T09:16:43;96625.22;;;18.03;100.00
6829;BME280;17930;48.592;8.868;2023-05-14T09:19:11;96616.47;;;17.91;100.00
6829;BME280;17930;48.592;8.868;2023-05-14T09:21:40;96613.53;;;18.13;100.00
6829;BME280;17930;48.592;8.868;2023-05-14T09:24:07;96613.13;;;18.43;100.00
6829;BME280;17930;48.592;8.868;2023-05-14T09:26:34;96606.44;;;18.46;100.00
6829;BME280;17930;48.592;8.868;2023-05-14T09:29:01;96608.88;;;19.15;100.00
6829;BME280;17930;48.592;8.868;2023-05-14T09:31:29;96612.31;;;18.95;100.00
6829;BME280;17930;48.592;8.868;2023-05-14T09:33:57;96604.50;;;19.66;100.00
6829;BME280;17930;48.592;8.868;2023-05-14T09:36:23;96601.34;;;20.12;100.00
6829;BME280;17930;48.592;8.868;2023-05-14T09:38:55;96607.75;;;20.11;100.00
6829;BME280;17930;48.592;8.868;2023-05-14T09:41:22;96598.28;;;20.64;100.00
6829;BME280;17930;48.592;8.868;2023-05-14T09:43:49;96602.69;;;21.15;100.00
6829;BME280;17930;48.592;8.868;2023-05-14T09:46:16;96594.75;;;20.60;100.00
6829;BME280;17930;48.592;8.868;2023-05-14T09:48:44;96596.53;;;19.78;100.00
6829;BME280;17930;48.592;8.868;2023-05-14T09:51:11;96603.06;;;19.01;100.00
6829;BME280;17930;48.592;8.868;2023-05-14T09:53:39;96601.22;;;18.57;100.00
6829;BME280;17930;48.592;8.868;2023-05-14T09:56:07;96598.84;;;19.20;100.00
6829;BME280;17930;48.592;8.868;2023-05-14T09:58:33;96593.56;;;18.88;100.00
6829;BME280;17930;48.592;8.868;2023-05-14T10:01:00;96595.69;;;18.50;100.00
6829;BME280;17930;48.592;8.868;2023-05-14T10:03:28;96595.38;;;18.64;100.00
6829;BME280;17930;48.592;8.868;2023-05-14T10:05:59;96581.75;;;19.65;100.00
6829;BME280;17930;48.592;8.868;2023-05-14T10:08:29;96578.22;;;19.73;100.00
6829;BME280;17930;48.592;8.868;2023-05-14T10:11:01;96584.97;;;20.22;100.00
6829;BME280;17930;48.592;8.868;2023-05-14T10:13:32;96576.50;;;20.44;100.00
6829;BME280;17930;48.592;8.868;2023-05-14T10:16:06;96583.53;;;20.52;100.00
6829;BME280;17930;48.592;8.868;2023-05-14T10:18:39;96575.94;;;20.23;100.00
6829;BME280;17930;48.592;8.868;2023-05-14T10:21:06;96576.47;;;19.42;100.00
6829;BME280;17930;48.592;8.868;2023-05-14T10:23:34;96581.31;;;19.52;100.00
6829;BME280;17930;48.592;8.868;2023-05-14T10:26:06;96573.28;;;19.24;100.00
6829;BME280;17930;48.592;8.868;2023-05-14T10:28:34;96576.25;;;19.35;100.00
6829;BME280;17930;48.592;8.868;2023-05-14T10:31:02;96570.06;;;19.90;100.00
6829;BME280;17930;48.592;8.868;2023-05-14T10:33:28;96573.91;;;20.32;100.00
6829;BME280;17930;48.592;8.868;2023-05-14T10:35:58;96569.34;;;21.33;100.00
6829;BME280;17930;48.592;8.868;2023-05-14T10:38:27;96571.69;;;21.50;100.00
6829;BME280;17930;48.592;8.868;2023-05-14T10:41:04;96559.69;;;22.43;100.00
6829;BME280;17930;48.592;8.868;2023-05-14T10:43:38;96557.81;;;23.51;100.00
6829;BME280;17930;48.592;8.868;2023-05-14T10:46:05;96557.72;;;23.22;100.00
6829;BME280;17930;48.592;8.868;2023-05-14T10:48:32;96574.00;;;21.51;100.00
6829;BME280;17930;48.592;8.868;2023-05-14T10:51:00;96572.47;;;19.71;100.00
6829;BME280;17930;48.592;8.868;2023-05-14T10:53:31;96575.28;;;18.19;100.00
6829;BME280;17930;48.592;8.868;2023-05-14T10:56:02;96571.63;;;17.62;100.00
6829;BME280;17930;48.592;8.868;2023-05-14T10:58:30;96580.56;;;16.67;100.00
6829;BME280;17930;48.592;8.868;2023-05-14T11:00:59;96582.25;;;15.79;100.00
6829;BME280;17930;48.592;8.868;2023-05-14T11:03:28;96575.41;;;15.14;100.00
6829;BME280;17930;48.592;8.868;2023-05-14T11:05:55;96590.34;;;14.66;100.00
6829;BME280;17930;48.592;8.868;2023-05-14T11:08:22;96577.03;;;14.33;100.00
6829;BME280;17930;48.592;8.868;2023-05-14T11:10:53;96575.75;;;14.52;100.00
6829;BME280;17930;48.592;8.868;2023-05-14T11:13:20;96577.78;;;14.33;100.00
6829;BME280;17930;48.592;8.868;2023-05-14T11:15:47;96563.66;;;14.42;100.00
6829;BME280;17930;48.592;8.868;2023-05-14T11:18:26;96566.63;;;14.49;100.00
6829;BME280;17930;48.592;8.868;2023-05-14T11:20:56;96549.50;;;14.82;100.00
6829;BME280;17930;48.592;8.868;2023-05-14T11:23:23;96544.59;;;15.28;100.00
6829;BME280;17930;48.592;8.868;2023-05-14T11:25:51;96543.28;;;15.89;100.00
6829;BME280;17930;48.592;8.868;2023-05-14T11:28:19;96535.16;;;17.36;100.00
6829;BME280;17930;48.592;8.868;2023-05-14T11:30:46;96527.94;;;19.73;100.00
6829;BME280;17930;48.592;8.868;2023-05-14T11:33:12;96517.00;;;22.55;100.00
6829;BME280;17930;48.592;8.868;2023-05-14T11:35:40;96523.59;;;22.64;100.00
6829;BME280;17930;48.592;8.868;2023-05-14T11:38:13;96534.38;;;20.27;100.00
6829;BME280;17930;48.592;8.868;2023-05-14T11:40:40;96529.41;;;19.11;100.00
6829;BME280;17930;48.592;8.868;2023-05-14T11:43:07;96522.09;;;18.97;100.00
6829;BME280;17930;48.592;8.868;2023-05-14T11:45:34;96516.44;;;18.74;100.00
6829;BME280;17930;48.592;8.868;2023-05-14T11:48:01;96515.59;;;18.82;100.00
6829;BME280;17930;48.592;8.868;2023-05-14T11:50:28;96518.84;;;17.42;100.00
6829;BME280;17930;48.592;8.868;2023-05-14T11:52:57;96526.59;;;17.10;100.00
6829;BME280;17930;48.592;8.868;2023-05-14T11:55:23;96517.50;;;18.49;100.00
6829;BME280;17930;48.592;8.868;2023-05-14T11:57:50;96511.38;;;20.15;100.00
6829;BME280;17930;48.592;8.868;2023-05-14T12:00:18;96511.34;;;20.70;100.00
6829;BME280;17930;48.592;8.868;2023-05-14T12:02:46;96507.31;;;20.91;100.00
6829;BME280;17930;48.592;8.868;2023-05-14T12:05:13;96500.81;;;20.31;100.00
6829;BME280;17930;48.592;8.868;2023-05-14T12:07:43;96501.16;;;20.87;100.00
6829;BME280;17930;48.592;8.868;2023-05-14T12:10:11;96492.13;;;21.53;100.00
6829;BME280;17930;48.592;8.868;2023-05-14T12:12:38;96490.38;;;22.77;100.00
6829;BME280;17930;48.592;8.868;2023-05-14T12:15:10;96480.22;;;23.05;100.00
6829;BME280;17930;48.592;8.868;2023-05-14T12:17:37;96472.63;;;24.49;100.00
6829;BME280;17930;48.592;8.868;2023-05-14T12:20:07;96463.16;;;24.98;100.00
6829;BME280;17930;48.592;8.868;2023-05-14T12:22:35;96452.38;;;26.05;100.00
6829;BME280;17930;48.592;8.868;2023-05-14T12:25:01;96458.28;;;24.28;100.00
6829;BME280;17930;48.592;8.868;2023-05-14T12:27:30;96458.88;;;24.44;100.00
6829;BME280;17930;48.592;8.868;2023-05-14T12:30:00;96456.03;;;24.30;100.00
6829;BME280;17930;48.592;8.868;2023-05-14T12:32:30;96462.22;;;22.31;100.00
6829;BME280;17930;48.592;8.868;2023-05-14T12:34:56;96459.88;;;21.36;100.00
6829;BME280;17930;48.592;8.868;2023-05-14T12:37:23;96466.47;;;20.65;100.00
6829;BME280;17930;48.592;8.868;2023-05-14T12:39:50;96467.53;;;20.18;100.00
6829;BME280;17930;48.592;8.868;2023-05-14T12:42:17;96474.59;;;19.48;100.00
6829;BME280;17930;48.592;8.868;2023-05-14T12:44:45;96464.44;;;18.43;100.00
6829;BME280;17930;48.592;8.868;2023-05-14T12:47:12;96471.13;;;17.76;100.00
6829;BME280;17930;48.592;8.868;2023-05-14T12:49:39;96464.53;;;17.21;100.00
6829;BME280;17930;48.592;8.868;2023-05-14T12:52:05;96463.63;;;16.88;100.00
6829;BME280;17930;48.592;8.868;2023-05-14T12:54:32;96468.09;;;16.59;100.00
6829;BME280;17930;48.592;8.868;2023-05-14T12:56:59;96472.00;;;16.44;100.00
6829;BME280;17930;48.592;8.868;2023-05-14T12:59:25;96469.19;;;16.49;100.00
6829;BME280;17930;48.592;8.868;2023-05-14T13:01:53;96463.00;;;16.45;100.00
6829;BME280;17930;48.592;8.868;2023-05-14T13:04:20;96457.13;;;16.48;100.00